Hilltop, Illinois
Current Conditions -  °F | °C
As of 6:56 PM on Tuesday 27 Jan 2015 (Local Time) from KBMI Reporting Station
Overcast Overcast  
Wind Chill: 24°   Ceiling: 1300
Heat Index: 30°   Visibility: 9mi
Dew Point: 26°   Wind: 6mph
Humidity: 85%   Direction: 70°ENE
Pressure: 30.24"   Gusts: NA
Location:  40.6191°N, 88.8038°W
Report Text: KBMI 280056Z 07005KT 9SM OVC013 M01/M03 A3024 RMK AO2 T10111033 SLP258
Loading
Personal Weather Stations






























Interactive Weather Map New forecast layout! Learn more

10-Day Weather Forecast

Advertisements
Track Severe Weather on mobile